sensor_id;sensor_type;location;lat;lon;timestamp;pressure;altitude;pressure_sealevel;temperature;humidity
57056;BME280;42945;51.718;5.324;2023-04-25T00:01:46;100969.25;;;2.96;100.00
57056;BME280;42945;51.718;5.324;2023-04-25T00:04:12;100926.50;;;2.96;100.00
57056;BME280;42945;51.718;5.324;2023-04-25T00:06:38;100886.41;;;2.92;100.00
57056;BME280;42945;51.718;5.324;2023-04-25T00:09:05;100918.78;;;2.90;100.00
57056;BME280;42945;51.718;5.324;2023-04-25T00:11:36;100888.81;;;2.28;100.00
57056;BME280;42945;51.718;5.324;2023-04-25T00:14:02;100946.81;;;2.86;100.00
57056;BME280;42945;51.718;5.324;2023-04-25T00:16:28;100966.78;;;2.90;100.00
57056;BME280;42945;51.718;5.324;2023-04-25T00:18:55;100999.75;;;3.01;100.00
57056;BME280;42945;51.718;5.324;2023-04-25T00:21:22;101073.69;;;3.51;100.00
57056;BME280;42945;51.718;5.324;2023-04-25T00:23:49;100940.72;;;2.86;100.00
57056;BME280;42945;51.718;5.324;2023-04-25T00:26:14;100989.69;;;2.82;100.00
57056;BME280;42945;51.718;5.324;2023-04-25T00:28:40;100860.00;;;2.28;100.00
57056;BME280;42945;51.718;5.324;2023-04-25T00:31:05;100917.44;;;2.73;100.00
57056;BME280;42945;51.718;5.324;2023-04-25T00:33:31;100850.59;;;2.21;100.00
57056;BME280;42945;51.718;5.324;2023-04-25T00:35:56;100955.69;;;2.79;100.00
57056;BME280;42945;51.718;5.324;2023-04-25T00:38:21;100964.41;;;2.81;100.00
57056;BME280;42945;51.718;5.324;2023-04-25T00:40:47;100954.03;;;2.76;100.00
57056;BME280;42945;51.718;5.324;2023-04-25T00:43:13;100960.13;;;2.77;100.00
57056;BME280;42945;51.718;5.324;2023-04-25T00:45:39;100990.69;;;2.76;100.00
57056;BME280;42945;51.718;5.324;2023-04-25T00:48:05;100943.56;;;2.75;100.00
57056;BME280;42945;51.718;5.324;2023-04-25T00:50:30;100950.69;;;2.70;100.00
57056;BME280;42945;51.718;5.324;2023-04-25T00:52:57;100946.63;;;2.94;100.00
57056;BME280;42945;51.718;5.324;2023-04-25T00:55:22;101064.59;;;3.64;100.00
57056;BME280;42945;51.718;5.324;2023-04-25T00:57:48;100955.88;;;3.09;100.00
57056;BME280;42945;51.718;5.324;2023-04-25T01:00:14;100998.00;;;3.01;100.00
57056;BME280;42945;51.718;5.324;2023-04-25T01:02:40;100974.28;;;3.06;100.00
57056;BME280;42945;51.718;5.324;2023-04-25T01:05:07;100983.13;;;3.02;100.00
57056;BME280;42945;51.718;5.324;2023-04-25T01:07:33;100951.00;;;2.93;100.00
57056;BME280;42945;51.718;5.324;2023-04-25T01:09:59;100917.50;;;3.06;100.00
57056;BME280;42945;51.718;5.324;2023-04-25T01:12:24;100764.50;;;1.73;100.00
57056;BME280;42945;51.718;5.324;2023-04-25T01:14:50;101063.72;;;3.64;100.00
57056;BME280;42945;51.718;5.324;2023-04-25T01:17:15;100813.53;;;2.40;100.00
57056;BME280;42945;51.718;5.324;2023-04-25T01:19:41;100966.31;;;3.10;100.00
57056;BME280;42945;51.718;5.324;2023-04-25T01:22:07;101098.47;;;3.73;100.00
57056;BME280;42945;51.718;5.324;2023-04-25T01:24:32;100854.41;;;2.45;100.00
57056;BME280;42945;51.718;5.324;2023-04-25T01:26:59;100973.88;;;3.23;100.00
57056;BME280;42945;51.718;5.324;2023-04-25T01:29:26;101088.78;;;3.75;100.00
57056;BME280;42945;51.718;5.324;2023-04-25T01:31:52;100983.72;;;3.13;100.00
57056;BME280;42945;51.718;5.324;2023-04-25T01:34:18;100828.91;;;2.52;100.00
57056;BME280;42945;51.718;5.324;2023-04-25T01:36:43;100985.63;;;3.06;100.00
57056;BME280;42945;51.718;5.324;2023-04-25T01:39:09;100982.13;;;3.06;100.00
57056;BME280;42945;51.718;5.324;2023-04-25T01:41:35;100965.97;;;2.88;100.00
57056;BME280;42945;51.718;5.324;2023-04-25T01:44:00;100955.50;;;2.88;100.00
57056;BME280;42945;51.718;5.324;2023-04-25T01:46:26;100976.38;;;2.91;100.00
57056;BME280;42945;51.718;5.324;2023-04-25T01:48:52;100959.22;;;2.78;100.00
57056;BME280;42945;51.718;5.324;2023-04-25T01:51:17;100879.38;;;2.21;100.00
57056;BME280;42945;51.718;5.324;2023-04-25T01:53:43;101008.09;;;2.79;100.00
57056;BME280;42945;51.718;5.324;2023-04-25T01:56:08;100889.13;;;2.14;100.00
57056;BME280;42945;51.718;5.324;2023-04-25T01:58:33;100969.75;;;2.76;100.00
57056;BME280;42945;51.718;5.324;2023-04-25T02:00:59;100986.38;;;2.75;100.00
57056;BME280;42945;51.718;5.324;2023-04-25T02:03:25;100995.91;;;2.78;100.00
57056;BME280;42945;51.718;5.324;2023-04-25T02:05:50;101026.88;;;2.58;100.00
57056;BME280;42945;51.718;5.324;2023-04-25T02:08:17;100936.56;;;2.38;100.00
57056;BME280;42945;51.718;5.324;2023-04-25T02:10:43;100875.78;;;1.86;100.00
57056;BME280;42945;51.718;5.324;2023-04-25T02:13:08;101001.69;;;2.52;100.00
57056;BME280;42945;51.718;5.324;2023-04-25T02:15:33;100980.91;;;2.46;100.00
57056;BME280;42945;51.718;5.324;2023-04-25T02:17:59;101000.28;;;2.39;100.00
57056;BME280;42945;51.718;5.324;2023-04-25T02:20:29;100978.41;;;2.41;100.00
57056;BME280;42945;51.718;5.324;2023-04-25T02:22:55;100824.19;;;1.09;100.00
57056;BME280;42945;51.718;5.324;2023-04-25T02:25:20;100990.78;;;2.33;100.00
57056;BME280;42945;51.718;5.324;2023-04-25T02:27:46;101010.16;;;2.24;100.00
57056;BME280;42945;51.718;5.324;2023-04-25T02:30:12;101094.28;;;2.91;100.00
57056;BME280;42945;51.718;5.324;2023-04-25T02:32:40;101024.84;;;2.31;100.00
57056;BME280;42945;51.718;5.324;2023-04-25T02:35:06;100983.91;;;2.29;100.00
57056;BME280;42945;51.718;5.324;2023-04-25T02:37:32;100884.81;;;1.70;100.00
57056;BME280;42945;51.718;5.324;2023-04-25T02:39:58;101027.75;;;2.17;100.00
57056;BME280;42945;51.718;5.324;2023-04-25T02:42:23;101022.06;;;2.39;100.00
57056;BME280;42945;51.718;5.324;2023-04-25T02:44:49;101020.47;;;2.30;100.00
57056;BME280;42945;51.718;5.324;2023-04-25T02:47:14;101017.06;;;2.27;100.00
57056;BME280;42945;51.718;5.324;2023-04-25T02:49:40;100995.13;;;2.32;100.00
57056;BME280;42945;51.718;5.324;2023-04-25T02:52:05;101041.13;;;2.44;100.00
57056;BME280;42945;51.718;5.324;2023-04-25T02:54:32;101009.78;;;2.43;100.00
57056;BME280;42945;51.718;5.324;2023-04-25T02:56:57;100997.69;;;2.35;100.00
57056;BME280;42945;51.718;5.324;2023-04-25T02:59:22;101111.44;;;3.05;100.00
57056;BME280;42945;51.718;5.324;2023-04-25T03:01:48;101006.28;;;2.42;100.00
57056;BME280;42945;51.718;5.324;2023-04-25T03:04:13;101008.84;;;2.45;100.00
57056;BME280;42945;51.718;5.324;2023-04-25T03:06:38;100948.69;;;2.42;100.00
57056;BME280;42945;51.718;5.324;2023-04-25T03:09:04;101077.41;;;2.63;100.00
57056;BME280;42945;51.718;5.324;2023-04-25T03:11:29;100957.75;;;1.84;100.00
57056;BME280;42945;51.718;5.324;2023-04-25T03:13:54;101041.06;;;2.47;100.00
57056;BME280;42945;51.718;5.324;2023-04-25T03:16:21;100974.81;;;2.45;100.00
57056;BME280;42945;51.718;5.324;2023-04-25T03:18:46;101034.22;;;2.42;100.00
57056;BME280;42945;51.718;5.324;2023-04-25T03:21:11;101019.69;;;2.27;100.00
57056;BME280;42945;51.718;5.324;2023-04-25T03:23:37;101031.88;;;2.28;100.00
57056;BME280;42945;51.718;5.324;2023-04-25T03:26:02;101023.16;;;2.29;100.00
57056;BME280;42945;51.718;5.324;2023-04-25T03:28:27;101006.59;;;2.27;100.00
57056;BME280;42945;51.718;5.324;2023-04-25T03:30:53;101028.34;;;2.30;100.00
57056;BME280;42945;51.718;5.324;2023-04-25T03:33:19;100941.38;;;1.75;100.00
57056;BME280;42945;51.718;5.324;2023-04-25T03:35:44;100948.94;;;1.89;100.00
57056;BME280;42945;51.718;5.324;2023-04-25T03:38:10;100868.09;;;1.79;100.00
57056;BME280;42945;51.718;5.324;2023-04-25T03:40:35;100994.97;;;2.40;100.00
57056;BME280;42945;51.718;5.324;2023-04-25T03:43:00;101013.44;;;2.34;100.00
57056;BME280;42945;51.718;5.324;2023-04-25T03:45:25;101060.34;;;2.45;100.00
57056;BME280;42945;51.718;5.324;2023-04-25T03:47:51;101018.47;;;2.43;100.00
57056;BME280;42945;51.718;5.324;2023-04-25T03:50:16;100902.28;;;1.69;100.00
57056;BME280;42945;51.718;5.324;2023-04-25T03:52:42;101041.47;;;2.29;100.00
57056;BME280;42945;51.718;5.324;2023-04-25T03:55:08;101127.50;;;2.89;100.00
57056;BME280;42945;51.718;5.324;2023-04-25T03:57:33;101030.06;;;2.31;100.00
57056;BME280;42945;51.718;5.324;2023-04-25T03:59:59;101055.81;;;2.53;100.00
57056;BME280;42945;51.718;5.324;2023-04-25T04:02:24;100911.59;;;1.83;100.00
57056;BME280;42945;51.718;5.324;2023-04-25T04:04:49;101017.38;;;2.53;100.00
57056;BME280;42945;51.718;5.324;2023-04-25T04:07:15;101021.72;;;2.56;100.00
57056;BME280;42945;51.718;5.324;2023-04-25T04:09:40;101023.59;;;2.49;100.00
57056;BME280;42945;51.718;5.324;2023-04-25T04:12:06;100943.69;;;1.91;100.00
57056;BME280;42945;51.718;5.324;2023-04-25T04:14:31;101045.19;;;2.59;100.00
57056;BME280;42945;51.718;5.324;2023-04-25T04:16:56;101044.88;;;2.74;100.00
57056;BME280;42945;51.718;5.324;2023-04-25T04:19:21;101020.28;;;2.82;100.00
57056;BME280;42945;51.718;5.324;2023-04-25T04:21:47;101084.09;;;2.78;100.00
57056;BME280;42945;51.718;5.324;2023-04-25T04:24:12;100921.44;;;2.12;100.00
57056;BME280;42945;51.718;5.324;2023-04-25T04:26:38;101028.22;;;2.77;100.00
57056;BME280;42945;51.718;5.324;2023-04-25T04:29:04;101014.75;;;2.94;100.00
57056;BME280;42945;51.718;5.324;2023-04-25T04:31:29;100964.78;;;2.64;100.00
57056;BME280;42945;51.718;5.324;2023-04-25T04:33:55;101067.81;;;3.02;100.00
57056;BME280;42945;51.718;5.324;2023-04-25T04:36:20;101048.50;;;3.06;100.00
57056;BME280;42945;51.718;5.324;2023-04-25T04:38:47;101068.59;;;3.06;100.00
57056;BME280;42945;51.718;5.324;2023-04-25T04:41:12;101099.81;;;3.17;100.00
57056;BME280;42945;51.718;5.324;2023-04-25T04:43:37;101007.97;;;3.21;100.00
57056;BME280;42945;51.718;5.324;2023-04-25T04:46:05;100947.53;;;2.55;100.00
57056;BME280;42945;51.718;5.324;2023-04-25T04:48:33;100927.53;;;2.51;100.00
57056;BME280;42945;51.718;5.324;2023-04-25T04:50:59;101070.00;;;3.22;100.00
57056;BME280;42945;51.718;5.324;2023-04-25T04:53:25;101051.84;;;3.13;100.00
57056;BME280;42945;51.718;5.324;2023-04-25T04:55:52;100933.91;;;2.41;100.00
57056;BME280;42945;51.718;5.324;2023-04-25T04:58:17;101012.72;;;3.05;100.00
57056;BME280;42945;51.718;5.324;2023-04-25T05:00:43;101033.56;;;3.10;100.00
57056;BME280;42945;51.718;5.324;2023-04-25T05:03:08;101090.34;;;3.11;100.00
57056;BME280;42945;51.718;5.324;2023-04-25T05:05:33;101070.09;;;3.18;100.00
57056;BME280;42945;51.718;5.324;2023-04-25T05:07:58;100978.06;;;2.56;100.00
57056;BME280;42945;51.718;5.324;2023-04-25T05:10:26;101043.97;;;3.14;100.00
57056;BME280;42945;51.718;5.324;2023-04-25T05:12:51;101058.75;;;3.17;100.00
57056;BME280;42945;51.718;5.324;2023-04-25T05:15:16;101059.53;;;3.21;100.00
57056;BME280;42945;51.718;5.324;2023-04-25T05:17:41;101100.34;;;3.32;100.00
57056;BME280;42945;51.718;5.324;2023-04-25T05:20:07;101072.28;;;3.36;100.00
57056;BME280;42945;51.718;5.324;2023-04-25T05:22:34;101081.75;;;3.42;100.00
57056;BME280;42945;51.718;5.324;2023-04-25T05:24:59;101103.25;;;3.56;100.00
57056;BME280;42945;51.718;5.324;2023-04-25T05:27:25;101095.31;;;3.61;100.00
57056;BME280;42945;51.718;5.324;2023-04-25T05:29:50;101123.72;;;3.78;100.00
57056;BME280;42945;51.718;5.324;2023-04-25T05:32:17;100991.13;;;3.31;100.00
57056;BME280;42945;51.718;5.324;2023-04-25T05:34:42;101070.25;;;3.82;100.00
57056;BME280;42945;51.718;5.324;2023-04-25T05:37:08;101099.22;;;3.79;100.00
57056;BME280;42945;51.718;5.324;2023-04-25T05:39:33;101072.06;;;3.80;100.00
57056;BME280;42945;51.718;5.324;2023-04-25T05:41:59;101009.09;;;3.11;100.00
57056;BME280;42945;51.718;5.324;2023-04-25T05:44:24;101124.53;;;4.14;100.00
57056;BME280;42945;51.718;5.324;2023-04-25T05:46:50;101086.56;;;3.94;100.00
57056;BME280;42945;51.718;5.324;2023-04-25T05:49:15;100961.59;;;3.25;100.00
57056;BME280;42945;51.718;5.324;2023-04-25T05:51:43;100978.47;;;3.13;100.00
57056;BME280;42945;51.718;5.324;2023-04-25T05:54:08;101053.28;;;3.26;100.00
57056;BME280;42945;51.718;5.324;2023-04-25T05:56:34;101059.94;;;3.75;100.00
57056;BME280;42945;51.718;5.324;2023-04-25T05:59:01;101079.88;;;3.83;100.00
57056;BME280;42945;51.718;5.324;2023-04-25T06:01:26;101070.59;;;3.69;100.00
57056;BME280;42945;51.718;5.324;2023-04-25T06:03:51;100955.16;;;3.02;100.00
57056;BME280;42945;51.718;5.324;2023-04-25T06:06:17;101075.63;;;4.11;100.00
57056;BME280;42945;51.718;5.324;2023-04-25T06:08:43;100997.91;;;3.40;100.00
57056;BME280;42945;51.718;5.324;2023-04-25T06:11:08;100978.97;;;3.62;100.00
57056;BME280;42945;51.718;5.324;2023-04-25T06:13:33;100979.44;;;3.78;100.00
57056;BME280;42945;51.718;5.324;2023-04-25T06:15:59;101141.41;;;4.69;100.00
57056;BME280;42945;51.718;5.324;2023-04-25T06:18:26;101086.31;;;4.37;100.00
57056;BME280;42945;51.718;5.324;2023-04-25T06:20:51;101145.47;;;4.50;100.00
57056;BME280;42945;51.718;5.324;2023-04-25T06:23:16;101132.22;;;4.53;100.00
57056;BME280;42945;51.718;5.324;2023-04-25T06:25:42;100981.88;;;3.84;100.00
57056;BME280;42945;51.718;5.324;2023-04-25T06:28:07;101141.09;;;4.49;100.00
57056;BME280;42945;51.718;5.324;2023-04-25T06:30:33;101112.16;;;4.82;100.00
57056;BME280;42945;51.718;5.324;2023-04-25T06:32:58;101096.44;;;4.80;100.00
57056;BME280;42945;51.718;5.324;2023-04-25T06:35:23;101079.06;;;4.74;100.00
57056;BME280;42945;51.718;5.324;2023-04-25T06:37:48;101059.09;;;4.99;100.00
57056;BME280;42945;51.718;5.324;2023-04-25T06:40:14;101110.69;;;5.01;100.00
57056;BME280;42945;51.718;5.324;2023-04-25T06:42:40;101102.19;;;5.21;100.00
57056;BME280;42945;51.718;5.324;2023-04-25T06:45:05;101102.97;;;5.25;100.00
57056;BME280;42945;51.718;5.324;2023-04-25T06:47:31;101123.69;;;5.36;100.00
57056;BME280;42945;51.718;5.324;2023-04-25T06:49:56;101078.91;;;5.09;100.00
57056;BME280;42945;51.718;5.324;2023-04-25T06:52:21;101076.66;;;5.25;100.00
57056;BME280;42945;51.718;5.324;2023-04-25T06:54:47;101087.66;;;5.09;100.00
57056;BME280;42945;51.718;5.324;2023-04-25T06:57:12;101048.97;;;4.57;100.00
57056;BME280;42945;51.718;5.324;2023-04-25T06:59:38;101060.09;;;4.65;100.00
57056;BME280;42945;51.718;5.324;2023-04-25T07:02:03;101028.03;;;4.83;100.00
57056;BME280;42945;51.718;5.324;2023-04-25T07:04:29;101102.31;;;6.00;100.00
57056;BME280;42945;51.718;5.324;2023-04-25T07:06:55;101113.88;;;6.21;100.00
57056;BME280;42945;51.718;5.324;2023-04-25T07:09:20;101147.22;;;6.20;100.00
57056;BME280;42945;51.718;5.324;2023-04-25T07:11:46;101103.16;;;6.00;100.00
57056;BME280;42945;51.718;5.324;2023-04-25T07:14:11;101109.28;;;6.26;100.00
57056;BME280;42945;51.718;5.324;2023-04-25T07:16:36;101089.72;;;6.08;100.00
57056;BME280;42945;51.718;5.324;2023-04-25T07:19:02;101190.84;;;6.02;100.00
57056;BME280;42945;51.718;5.324;2023-04-25T07:21:27;101039.44;;;5.89;100.00
57056;BME280;42945;51.718;5.324;2023-04-25T07:23:52;101151.41;;;6.76;100.00
57056;BME280;42945;51.718;5.324;2023-04-25T07:26:18;101150.59;;;6.74;100.00
57056;BME280;42945;51.718;5.324;2023-04-25T07:28:43;101115.91;;;7.30;100.00
57056;BME280;42945;51.718;5.324;2023-04-25T07:31:09;101146.66;;;7.09;100.00
57056;BME280;42945;51.718;5.324;2023-04-25T07:33:34;101128.31;;;7.06;100.00
57056;BME280;42945;51.718;5.324;2023-04-25T07:36:00;101168.91;;;6.79;100.00
57056;BME280;42945;51.718;5.324;2023-04-25T07:38:25;101113.63;;;6.52;100.00
57056;BME280;42945;51.718;5.324;2023-04-25T07:40:51;101156.78;;;6.49;100.00
57056;BME280;42945;51.718;5.324;2023-04-25T07:43:16;101143.34;;;6.81;100.00
57056;BME280;42945;51.718;5.324;2023-04-25T07:45:42;101140.03;;;6.98;100.00
57056;BME280;42945;51.718;5.324;2023-04-25T07:48:08;101126.13;;;6.70;100.00
57056;BME280;42945;51.718;5.324;2023-04-25T07:50:34;101070.47;;;7.02;100.00
57056;BME280;42945;51.718;5.324;2023-04-25T07:52:59;101204.19;;;6.75;100.00
57056;BME280;42945;51.718;5.324;2023-04-25T07:55:24;101156.22;;;6.88;100.00
57056;BME280;42945;51.718;5.324;2023-04-25T07:57:49;101146.69;;;6.36;100.00
57056;BME280;42945;51.718;5.324;2023-04-25T08:00:15;101165.22;;;7.06;100.00
57056;BME280;42945;51.718;5.324;2023-04-25T08:02:40;101191.97;;;6.96;100.00
57056;BME280;42945;51.718;5.324;2023-04-25T08:05:06;101101.81;;;6.14;100.00
57056;BME280;42945;51.718;5.324;2023-04-25T08:07:33;101153.97;;;6.54;100.00
57056;BME280;42945;51.718;5.324;2023-04-25T08:09:58;101178.31;;;6.61;100.00
57056;BME280;42945;51.718;5.324;2023-04-25T08:12:24;101243.34;;;6.85;100.00
57056;BME280;42945;51.718;5.324;2023-04-25T08:14:50;101175.66;;;6.86;100.00
57056;BME280;42945;51.718;5.324;2023-04-25T08:17:15;101179.81;;;7.15;100.00
57056;BME280;42945;51.718;5.324;2023-04-25T08:19:42;101197.56;;;6.63;100.00
57056;BME280;42945;51.718;5.324;2023-04-25T08:22:07;101070.91;;;6.67;100.00
57056;BME280;42945;51.718;5.324;2023-04-25T08:24:34;101099.94;;;6.42;100.00
57056;BME280;42945;51.718;5.324;2023-04-25T08:26:59;101204.91;;;7.27;100.00
57056;BME280;42945;51.718;5.324;2023-04-25T08:29:24;101098.00;;;6.71;100.00
57056;BME280;42945;51.718;5.324;2023-04-25T08:31:50;101181.00;;;6.84;100.00
57056;BME280;42945;51.718;5.324;2023-04-25T08:34:18;101229.31;;;7.32;100.00
57056;BME280;42945;51.718;5.324;2023-04-25T08:36:43;101174.00;;;7.75;100.00
57056;BME280;42945;51.718;5.324;2023-04-25T08:39:08;101245.84;;;7.37;100.00
57056;BME280;42945;51.718;5.324;2023-04-25T08:41:36;101080.31;;;6.75;100.00
57056;BME280;42945;51.718;5.324;2023-04-25T08:44:03;101065.19;;;7.02;100.00
57056;BME280;42945;51.718;5.324;2023-04-25T08:46:29;101220.88;;;8.12;100.00
57056;BME280;42945;51.718;5.324;2023-04-25T08:49:00;101205.75;;;7.95;100.00
57056;BME280;42945;51.718;5.324;2023-04-25T08:51:26;101310.59;;;8.80;100.00
57056;BME280;42945;51.718;5.324;2023-04-25T08:53:53;101222.25;;;7.78;100.00
57056;BME280;42945;51.718;5.324;2023-04-25T08:56:19;101272.84;;;7.67;100.00
57056;BME280;42945;51.718;5.324;2023-04-25T08:58:50;101286.63;;;7.76;100.00
57056;BME280;42945;51.718;5.324;2023-04-25T09:01:16;101283.97;;;7.52;100.00
57056;BME280;42945;51.718;5.324;2023-04-25T09:03:42;101125.97;;;6.52;100.00
57056;BME280;42945;51.718;5.324;2023-04-25T09:06:10;101271.25;;;6.91;100.00
57056;BME280;42945;51.718;5.324;2023-04-25T09:08:37;101136.69;;;6.45;100.00
57056;BME280;42945;51.718;5.324;2023-04-25T09:11:02;101275.41;;;6.98;100.00
57056;BME280;42945;51.718;5.324;2023-04-25T09:13:28;101151.31;;;6.04;100.00
57056;BME280;42945;51.718;5.324;2023-04-25T09:15:55;101289.00;;;6.86;100.00
57056;BME280;42945;51.718;5.324;2023-04-25T09:18:27;101304.31;;;7.25;100.00
57056;BME280;42945;51.718;5.324;2023-04-25T09:20:58;101286.78;;;7.47;100.00
57056;BME280;42945;51.718;5.324;2023-04-25T09:23:29;101274.59;;;7.21;100.00
57056;BME280;42945;51.718;5.324;2023-04-25T09:25:54;101296.22;;;7.55;100.00
57056;BME280;42945;51.718;5.324;2023-04-25T09:28:26;101315.13;;;7.89;100.00
57056;BME280;42945;51.718;5.324;2023-04-25T09:30:56;101199.25;;;8.02;100.00
57056;BME280;42945;51.718;5.324;2023-04-25T09:33:28;101302.59;;;8.39;100.00
57056;BME280;42945;51.718;5.324;2023-04-25T09:36:01;101265.16;;;7.61;100.00
57056;BME280;42945;51.718;5.324;2023-04-25T09:38:27;101292.00;;;7.95;100.00
57056;BME280;42945;51.718;5.324;2023-04-25T09:40:55;101293.16;;;7.89;100.00
57056;BME280;42945;51.718;5.324;2023-04-25T09:43:23;101271.88;;;7.92;100.00
57056;BME280;42945;51.718;5.324;2023-04-25T09:45:50;100957.22;;;8.20;100.00
57056;BME280;42945;51.718;5.324;2023-04-25T09:48:27;101251.88;;;8.72;100.00
57056;BME280;42945;51.718;5.324;2023-04-25T09:51:13;101305.94;;;8.44;100.00
57056;BME280;42945;51.718;5.324;2023-04-25T09:53:43;101316.34;;;8.69;100.00
57056;BME280;42945;51.718;5.324;2023-04-25T09:56:10;101287.75;;;9.18;100.00
57056;BME280;42945;51.718;5.324;2023-04-25T09:58:37;101287.22;;;9.31;100.00
57056;BME280;42945;51.718;5.324;2023-04-25T10:01:06;101249.31;;;8.70;98.81
57056;BME280;42945;51.718;5.324;2023-04-25T10:03:34;101304.41;;;9.41;100.00
57056;BME280;42945;51.718;5.324;2023-04-25T10:06:01;101180.59;;;8.07;100.00
57056;BME280;42945;51.718;5.324;2023-04-25T10:08:31;101256.06;;;8.77;100.00
57056;BME280;42945;51.718;5.324;2023-04-25T10:11:00;101271.09;;;9.16;100.00
57056;BME280;42945;51.718;5.324;2023-04-25T10:13:27;101287.09;;;9.91;100.00
57056;BME280;42945;51.718;5.324;2023-04-25T10:15:53;101169.94;;;9.66;98.72
57056;BME280;42945;51.718;5.324;2023-04-25T10:18:19;101264.47;;;9.45;97.78
57056;BME280;42945;51.718;5.324;2023-04-25T10:20:45;101287.19;;;9.12;100.00
57056;BME280;42945;51.718;5.324;2023-04-25T10:23:14;101290.84;;;9.28;100.00
57056;BME280;42945;51.718;5.324;2023-04-25T10:25:41;101294.78;;;8.99;100.00
57056;BME280;42945;51.718;5.324;2023-04-25T10:28:06;101260.00;;;9.08;100.00
57056;BME280;42945;51.718;5.324;2023-04-25T10:30:32;101204.63;;;7.79;100.00
57056;BME280;42945;51.718;5.324;2023-04-25T10:32:59;101341.09;;;7.55;100.00
57056;BME280;42945;51.718;5.324;2023-04-25T10:35:26;101302.16;;;7.60;100.00
57056;BME280;42945;51.718;5.324;2023-04-25T10:38:13;101314.22;;;7.67;100.00
57056;BME280;42945;51.718;5.324;2023-04-25T10:40:39;101323.28;;;7.60;100.00
57056;BME280;42945;51.718;5.324;2023-04-25T10:43:42;101373.00;;;7.96;100.00
57056;BME280;42945;51.718;5.324;2023-04-25T10:46:27;101315.38;;;7.83;100.00
57056;BME280;42945;51.718;5.324;2023-04-25T10:48:56;101373.00;;;8.18;100.00
57056;BME280;42945;51.718;5.324;2023-04-25T10:51:26;101353.06;;;8.11;100.00
57056;BME280;42945;51.718;5.324;2023-04-25T10:56:30;101325.56;;;7.93;100.00
57056;BME280;42945;51.718;5.324;2023-04-25T11:01:38;101352.13;;;8.12;100.00
57056;BME280;42945;51.718;5.324;2023-04-25T11:04:04;101349.91;;;7.54;100.00
57056;BME280;42945;51.718;5.324;2023-04-25T11:06:55;101347.91;;;7.84;100.00
57056;BME280;42945;51.718;5.324;2023-04-25T11:09:24;101354.47;;;8.19;100.00
57056;BME280;42945;51.718;5.324;2023-04-25T11:11:57;101310.09;;;8.05;100.00
57056;BME280;42945;51.718;5.324;2023-04-25T11:14:23;101226.06;;;7.25;100.00
57056;BME280;42945;51.718;5.324;2023-04-25T11:16:55;101330.63;;;7.99;100.00
57056;BME280;42945;51.718;5.324;2023-04-25T11:19:21;101332.22;;;8.03;100.00
57056;BME280;42945;51.718;5.324;2023-04-25T11:21:47;101201.63;;;7.88;100.00
57056;BME280;42945;51.718;5.324;2023-04-25T11:24:12;101328.16;;;8.38;100.00
57056;BME280;42945;51.718;5.324;2023-04-25T11:26:37;101382.47;;;8.23;100.00
57056;BME280;42945;51.718;5.324;2023-04-25T11:29:02;101318.34;;;8.84;100.00
57056;BME280;42945;51.718;5.324;2023-04-25T11:31:29;101382.97;;;9.40;100.00
57056;BME280;42945;51.718;5.324;2023-04-25T11:33:57;101347.22;;;10.08;100.00
57056;BME280;42945;51.718;5.324;2023-04-25T11:36:23;101384.00;;;9.57;94.32
57056;BME280;42945;51.718;5.324;2023-04-25T11:38:50;101349.16;;;9.26;85.48
57056;BME280;42945;51.718;5.324;2023-04-25T11:41:16;101406.28;;;9.72;74.99
57056;BME280;42945;51.718;5.324;2023-04-25T11:43:42;101323.97;;;9.95;71.20
57056;BME280;42945;51.718;5.324;2023-04-25T11:46:08;101351.03;;;9.64;66.46
57056;BME280;42945;51.718;5.324;2023-04-25T11:48:41;101235.44;;;8.65;65.48
57056;BME280;42945;51.718;5.324;2023-04-25T11:51:06;101393.97;;;9.31;65.25
57056;BME280;42945;51.718;5.324;2023-04-25T11:53:32;101264.50;;;8.85;63.80
57056;BME280;42945;51.718;5.324;2023-04-25T11:55:58;101262.00;;;8.41;62.37
57056;BME280;42945;51.718;5.324;2023-04-25T11:58:23;101397.50;;;9.30;62.59
57056;BME280;42945;51.718;5.324;2023-04-25T12:00:48;101361.84;;;9.18;65.43
57056;BME280;42945;51.718;5.324;2023-04-25T12:03:14;101265.50;;;8.62;64.74
57056;BME280;42945;51.718;5.324;2023-04-25T12:05:39;101373.44;;;10.33;65.56
57056;BME280;42945;51.718;5.324;2023-04-25T12:08:15;101246.72;;;9.66;62.97
57056;BME280;42945;51.718;5.324;2023-04-25T12:10:45;101341.84;;;10.28;63.95
57056;BME280;42945;51.718;5.324;2023-04-25T12:13:23;101398.09;;;10.16;67.75
57056;BME280;42945;51.718;5.324;2023-04-25T12:15:49;101392.06;;;10.31;83.06
57056;BME280;42945;51.718;5.324;2023-04-25T12:18:19;101104.19;;;7.82;100.00
57056;BME280;42945;51.718;5.324;2023-04-25T12:20:44;101390.97;;;8.98;100.00
57056;BME280;42945;51.718;5.324;2023-04-25T12:23:10;101303.09;;;8.48;100.00
57056;BME280;42945;51.718;5.324;2023-04-25T12:25:44;101373.09;;;8.82;100.00
57056;BME280;42945;51.718;5.324;2023-04-25T12:33:27;101311.75;;;7.62;100.00
57056;BME280;42945;51.718;5.324;2023-04-25T12:35:55;101420.34;;;8.47;100.00
57056;BME280;42945;51.718;5.324;2023-04-25T12:38:26;101386.22;;;8.41;100.00
57056;BME280;42945;51.718;5.324;2023-04-25T12:40:53;101292.41;;;7.85;100.00
57056;BME280;42945;51.718;5.324;2023-04-25T12:43:18;101397.56;;;8.87;100.00
57056;BME280;42945;51.718;5.324;2023-04-25T12:45:47;101396.00;;;9.24;94.87
57056;BME280;42945;51.718;5.324;2023-04-25T12:48:12;101369.53;;;9.45;89.01
57056;BME280;42945;51.718;5.324;2023-04-25T12:50:39;101372.97;;;9.47;85.84
57056;BME280;42945;51.718;5.324;2023-04-25T12:53:06;101418.09;;;9.64;86.44
57056;BME280;42945;51.718;5.324;2023-04-25T12:55:31;101374.38;;;9.94;87.50
57056;BME280;42945;51.718;5.324;2023-04-25T12:57:56;101420.75;;;9.44;92.83